sensor_id;sensor_type;location;lat;lon;timestamp;P1;durP1;ratioP1;P2;durP2;ratioP2
56419;SDS011;42323;52.170;7.538;2022-08-03T00:00:25;4.90;;;3.00;;
56419;SDS011;42323;52.170;7.538;2022-08-03T00:02:51;5.28;;;2.72;;
56419;SDS011;42323;52.170;7.538;2022-08-03T00:05:19;4.97;;;2.83;;
56419;SDS011;42323;52.170;7.538;2022-08-03T00:07:46;4.75;;;3.05;;
56419;SDS011;42323;52.170;7.538;2022-08-03T00:10:14;8.02;;;2.83;;
56419;SDS011;42323;52.170;7.538;2022-08-03T00:12:42;5.43;;;3.15;;
56419;SDS011;42323;52.170;7.538;2022-08-03T00:15:09;6.35;;;3.40;;
56419;SDS011;42323;52.170;7.538;2022-08-03T00:17:42;5.78;;;2.83;;
56419;SDS011;42323;52.170;7.538;2022-08-03T00:20:19;3.45;;;2.67;;
56419;SDS011;42323;52.170;7.538;2022-08-03T00:22:46;6.55;;;3.13;;
56419;SDS011;42323;52.170;7.538;2022-08-03T00:25:13;5.03;;;3.10;;
56419;SDS011;42323;52.170;7.538;2022-08-03T00:27:40;3.75;;;2.70;;
56419;SDS011;42323;52.170;7.538;2022-08-03T00:30:07;7.53;;;3.58;;
56419;SDS011;42323;52.170;7.538;2022-08-03T00:32:35;4.75;;;2.80;;
56419;SDS011;42323;52.170;7.538;2022-08-03T00:35:04;7.53;;;2.90;;
56419;SDS011;42323;52.170;7.538;2022-08-03T00:37:35;6.28;;;3.00;;
56419;SDS011;42323;52.170;7.538;2022-08-03T00:40:08;4.80;;;3.20;;
56419;SDS011;42323;52.170;7.538;2022-08-03T00:42:45;4.25;;;2.88;;
56419;SDS011;42323;52.170;7.538;2022-08-03T00:45:16;5.13;;;3.00;;
56419;SDS011;42323;52.170;7.538;2022-08-03T00:47:44;6.50;;;3.35;;
56419;SDS011;42323;52.170;7.538;2022-08-03T00:50:11;4.80;;;3.10;;
56419;SDS011;42323;52.170;7.538;2022-08-03T00:52:39;4.45;;;2.80;;
56419;SDS011;42323;52.170;7.538;2022-08-03T00:55:07;5.32;;;2.63;;
56419;SDS011;42323;52.170;7.538;2022-08-03T00:57:35;4.45;;;2.70;;
56419;SDS011;42323;52.170;7.538;2022-08-03T01:00:04;6.22;;;3.05;;
56419;SDS011;42323;52.170;7.538;2022-08-03T01:02:32;3.75;;;2.58;;
56419;SDS011;42323;52.170;7.538;2022-08-03T01:04:59;6.10;;;3.10;;
56419;SDS011;42323;52.170;7.538;2022-08-03T01:10:16;3.78;;;2.90;;
56419;SDS011;42323;52.170;7.538;2022-08-03T01:12:58;5.97;;;2.65;;
56419;SDS011;42323;52.170;7.538;2022-08-03T01:21:39;3.63;;;2.70;;
56419;SDS011;42323;52.170;7.538;2022-08-03T01:24:54;5.40;;;3.03;;
56419;SDS011;42323;52.170;7.538;2022-08-03T01:30:09;5.90;;;2.90;;
56419;SDS011;42323;52.170;7.538;2022-08-03T01:38:11;5.70;;;2.97;;
56419;SDS011;42323;52.170;7.538;2022-08-03T01:40:41;5.88;;;3.05;;
56419;SDS011;42323;52.170;7.538;2022-08-03T01:43:12;6.60;;;2.80;;
56419;SDS011;42323;52.170;7.538;2022-08-03T01:46:01;5.00;;;2.90;;
56419;SDS011;42323;52.170;7.538;2022-08-03T01:48:29;5.38;;;2.50;;
56419;SDS011;42323;52.170;7.538;2022-08-03T01:50:57;3.97;;;2.72;;
56419;SDS011;42323;52.170;7.538;2022-08-03T01:53:25;3.30;;;2.67;;
56419;SDS011;42323;52.170;7.538;2022-08-03T01:55:54;3.90;;;2.60;;
56419;SDS011;42323;52.170;7.538;2022-08-03T01:58:23;3.97;;;2.85;;
56419;SDS011;42323;52.170;7.538;2022-08-03T02:00:51;5.82;;;2.55;;
56419;SDS011;42323;52.170;7.538;2022-08-03T02:03:19;6.60;;;2.90;;
56419;SDS011;42323;52.170;7.538;2022-08-03T02:05:48;4.63;;;2.72;;
56419;SDS011;42323;52.170;7.538;2022-08-03T02:08:36;6.57;;;2.70;;
56419;SDS011;42323;52.170;7.538;2022-08-03T02:11:04;3.60;;;2.40;;
56419;SDS011;42323;52.170;7.538;2022-08-03T02:13:33;3.80;;;3.08;;
56419;SDS011;42323;52.170;7.538;2022-08-03T02:16:03;4.97;;;2.90;;
56419;SDS011;42323;52.170;7.538;2022-08-03T02:18:31;6.18;;;3.22;;
56419;SDS011;42323;52.170;7.538;2022-08-03T02:21:01;5.13;;;3.25;;
56419;SDS011;42323;52.170;7.538;2022-08-03T02:23:36;4.20;;;2.85;;
56419;SDS011;42323;52.170;7.538;2022-08-03T02:26:04;4.72;;;2.80;;
56419;SDS011;42323;52.170;7.538;2022-08-03T02:28:35;4.70;;;3.25;;
56419;SDS011;42323;52.170;7.538;2022-08-03T02:31:06;6.35;;;3.28;;
56419;SDS011;42323;52.170;7.538;2022-08-03T02:33:43;7.57;;;3.53;;
56419;SDS011;42323;52.170;7.538;2022-08-03T02:36:15;4.07;;;3.13;;
56419;SDS011;42323;52.170;7.538;2022-08-03T02:38:51;4.20;;;3.70;;
56419;SDS011;42323;52.170;7.538;2022-08-03T02:41:23;8.45;;;3.50;;
56419;SDS011;42323;52.170;7.538;2022-08-03T02:43:53;4.60;;;3.60;;
56419;SDS011;42323;52.170;7.538;2022-08-03T02:46:33;4.97;;;3.78;;
56419;SDS011;42323;52.170;7.538;2022-08-03T02:49:04;4.75;;;3.35;;
56419;SDS011;42323;52.170;7.538;2022-08-03T02:51:52;8.45;;;3.80;;
56419;SDS011;42323;52.170;7.538;2022-08-03T02:54:20;8.68;;;3.75;;
56419;SDS011;42323;52.170;7.538;2022-08-03T02:56:49;5.35;;;3.67;;
56419;SDS011;42323;52.170;7.538;2022-08-03T02:59:17;4.63;;;3.42;;
56419;SDS011;42323;52.170;7.538;2022-08-03T03:01:46;5.25;;;3.42;;
56419;SDS011;42323;52.170;7.538;2022-08-03T03:04:14;5.55;;;3.78;;
56419;SDS011;42323;52.170;7.538;2022-08-03T03:06:42;5.72;;;3.92;;
56419;SDS011;42323;52.170;7.538;2022-08-03T03:09:13;5.50;;;3.80;;
56419;SDS011;42323;52.170;7.538;2022-08-03T03:11:40;5.53;;;4.00;;
56419;SDS011;42323;52.170;7.538;2022-08-03T03:14:09;5.68;;;3.85;;
56419;SDS011;42323;52.170;7.538;2022-08-03T03:16:39;5.05;;;3.78;;
56419;SDS011;42323;52.170;7.538;2022-08-03T03:19:08;5.45;;;4.15;;
56419;SDS011;42323;52.170;7.538;2022-08-03T03:21:38;5.22;;;4.00;;
56419;SDS011;42323;52.170;7.538;2022-08-03T03:24:05;6.47;;;4.13;;
56419;SDS011;42323;52.170;7.538;2022-08-03T03:26:34;6.40;;;4.30;;
56419;SDS011;42323;52.170;7.538;2022-08-03T03:29:07;5.97;;;4.00;;
56419;SDS011;42323;52.170;7.538;2022-08-03T03:31:35;6.18;;;3.83;;
56419;SDS011;42323;52.170;7.538;2022-08-03T03:34:02;5.38;;;4.07;;
56419;SDS011;42323;52.170;7.538;2022-08-03T03:36:31;5.03;;;4.25;;
56419;SDS011;42323;52.170;7.538;2022-08-03T03:38:58;6.78;;;4.60;;
56419;SDS011;42323;52.170;7.538;2022-08-03T03:41:41;5.82;;;4.03;;
56419;SDS011;42323;52.170;7.538;2022-08-03T03:44:08;5.85;;;4.07;;
56419;SDS011;42323;52.170;7.538;2022-08-03T03:46:36;6.32;;;4.35;;
56419;SDS011;42323;52.170;7.538;2022-08-03T03:49:07;6.03;;;4.50;;
56419;SDS011;42323;52.170;7.538;2022-08-03T03:51:34;6.07;;;4.35;;
56419;SDS011;42323;52.170;7.538;2022-08-03T03:54:01;7.72;;;4.70;;
56419;SDS011;42323;52.170;7.538;2022-08-03T03:56:32;5.90;;;4.28;;
56419;SDS011;42323;52.170;7.538;2022-08-03T03:58:59;5.57;;;4.65;;
56419;SDS011;42323;52.170;7.538;2022-08-03T04:01:26;6.78;;;4.80;;
56419;SDS011;42323;52.170;7.538;2022-08-03T04:03:54;6.63;;;4.63;;
56419;SDS011;42323;52.170;7.538;2022-08-03T04:06:20;6.95;;;4.80;;
56419;SDS011;42323;52.170;7.538;2022-08-03T04:09:06;8.37;;;5.00;;
56419;SDS011;42323;52.170;7.538;2022-08-03T04:11:55;6.43;;;4.53;;
56419;SDS011;42323;52.170;7.538;2022-08-03T04:14:31;6.70;;;4.55;;
56419;SDS011;42323;52.170;7.538;2022-08-03T04:17:01;7.50;;;4.43;;
56419;SDS011;42323;52.170;7.538;2022-08-03T04:19:37;6.35;;;4.60;;
56419;SDS011;42323;52.170;7.538;2022-08-03T04:22:05;6.00;;;4.55;;
56419;SDS011;42323;52.170;7.538;2022-08-03T04:24:43;7.50;;;5.32;;
56419;SDS011;42323;52.170;7.538;2022-08-03T04:27:15;5.88;;;4.53;;
56419;SDS011;42323;52.170;7.538;2022-08-03T04:29:47;8.23;;;4.78;;
56419;SDS011;42323;52.170;7.538;2022-08-03T04:32:16;6.45;;;4.47;;
56419;SDS011;42323;52.170;7.538;2022-08-03T04:34:46;7.13;;;4.70;;
56419;SDS011;42323;52.170;7.538;2022-08-03T04:40:08;10.20;;;4.90;;
56419;SDS011;42323;52.170;7.538;2022-08-03T04:42:39;6.07;;;4.78;;
56419;SDS011;42323;52.170;7.538;2022-08-03T04:45:10;6.45;;;4.70;;
56419;SDS011;42323;52.170;7.538;2022-08-03T04:47:38;7.22;;;5.00;;
56419;SDS011;42323;52.170;7.538;2022-08-03T04:50:05;7.00;;;4.75;;
56419;SDS011;42323;52.170;7.538;2022-08-03T04:52:38;6.25;;;4.80;;
56419;SDS011;42323;52.170;7.538;2022-08-03T04:55:06;6.95;;;5.07;;
56419;SDS011;42323;52.170;7.538;2022-08-03T04:57:33;8.25;;;5.22;;
56419;SDS011;42323;52.170;7.538;2022-08-03T05:00:00;6.72;;;4.90;;
56419;SDS011;42323;52.170;7.538;2022-08-03T05:02:29;6.60;;;5.00;;
56419;SDS011;42323;52.170;7.538;2022-08-03T05:04:57;6.40;;;4.95;;
56419;SDS011;42323;52.170;7.538;2022-08-03T05:07:24;8.27;;;5.47;;
56419;SDS011;42323;52.170;7.538;2022-08-03T05:10:02;11.98;;;5.15;;
56419;SDS011;42323;52.170;7.538;2022-08-03T05:12:40;9.13;;;4.95;;
56419;SDS011;42323;52.170;7.538;2022-08-03T05:15:07;8.48;;;4.82;;
56419;SDS011;42323;52.170;7.538;2022-08-03T05:17:35;7.47;;;4.90;;
56419;SDS011;42323;52.170;7.538;2022-08-03T05:20:02;9.48;;;4.85;;
56419;SDS011;42323;52.170;7.538;2022-08-03T05:22:30;8.15;;;4.63;;
56419;SDS011;42323;52.170;7.538;2022-08-03T05:24:57;8.10;;;4.95;;
56419;SDS011;42323;52.170;7.538;2022-08-03T05:27:23;7.05;;;4.95;;
56419;SDS011;42323;52.170;7.538;2022-08-03T05:29:50;6.63;;;4.72;;
56419;SDS011;42323;52.170;7.538;2022-08-03T05:32:17;7.75;;;4.70;;
56419;SDS011;42323;52.170;7.538;2022-08-03T05:34:44;7.32;;;5.05;;
56419;SDS011;42323;52.170;7.538;2022-08-03T05:37:11;6.50;;;4.88;;
56419;SDS011;42323;52.170;7.538;2022-08-03T05:39:38;7.75;;;4.90;;
56419;SDS011;42323;52.170;7.538;2022-08-03T05:42:05;7.93;;;5.60;;
56419;SDS011;42323;52.170;7.538;2022-08-03T05:44:31;7.18;;;4.60;;
56419;SDS011;42323;52.170;7.538;2022-08-03T05:46:58;6.85;;;4.78;;
56419;SDS011;42323;52.170;7.538;2022-08-03T05:49:25;8.38;;;4.72;;
56419;SDS011;42323;52.170;7.538;2022-08-03T05:51:52;11.82;;;5.03;;
56419;SDS011;42323;52.170;7.538;2022-08-03T05:54:36;6.93;;;4.38;;
56419;SDS011;42323;52.170;7.538;2022-08-03T05:59:50;6.05;;;3.78;;
56419;SDS011;42323;52.170;7.538;2022-08-03T06:02:24;9.40;;;4.88;;
56419;SDS011;42323;52.170;7.538;2022-08-03T06:04:51;9.73;;;4.80;;
56419;SDS011;42323;52.170;7.538;2022-08-03T06:07:18;13.88;;;4.38;;
56419;SDS011;42323;52.170;7.538;2022-08-03T06:09:45;8.95;;;4.63;;
56419;SDS011;42323;52.170;7.538;2022-08-03T06:12:32;7.40;;;4.75;;
56419;SDS011;42323;52.170;7.538;2022-08-03T06:15:02;8.07;;;4.18;;
56419;SDS011;42323;52.170;7.538;2022-08-03T06:17:29;8.57;;;4.80;;
56419;SDS011;42323;52.170;7.538;2022-08-03T06:20:03;8.15;;;4.32;;
56419;SDS011;42323;52.170;7.538;2022-08-03T06:22:33;6.97;;;4.40;;
56419;SDS011;42323;52.170;7.538;2022-08-03T06:25:00;9.85;;;4.68;;
56419;SDS011;42323;52.170;7.538;2022-08-03T06:27:31;8.30;;;4.15;;
56419;SDS011;42323;52.170;7.538;2022-08-03T06:30:03;8.57;;;4.45;;
56419;SDS011;42323;52.170;7.538;2022-08-03T06:32:30;6.75;;;4.50;;
56419;SDS011;42323;52.170;7.538;2022-08-03T06:34:57;9.15;;;4.10;;
56419;SDS011;42323;52.170;7.538;2022-08-03T06:37:25;5.47;;;3.72;;
56419;SDS011;42323;52.170;7.538;2022-08-03T06:39:52;8.48;;;4.20;;
56419;SDS011;42323;52.170;7.538;2022-08-03T06:42:19;8.88;;;3.90;;
56419;SDS011;42323;52.170;7.538;2022-08-03T06:44:48;10.18;;;4.32;;
56419;SDS011;42323;52.170;7.538;2022-08-03T06:47:15;8.20;;;4.40;;
56419;SDS011;42323;52.170;7.538;2022-08-03T06:49:42;6.95;;;4.07;;
56419;SDS011;42323;52.170;7.538;2022-08-03T06:52:29;7.82;;;4.30;;
56419;SDS011;42323;52.170;7.538;2022-08-03T06:55:04;8.23;;;3.78;;
56419;SDS011;42323;52.170;7.538;2022-08-03T06:57:31;5.25;;;3.55;;
56419;SDS011;42323;52.170;7.538;2022-08-03T06:59:58;5.32;;;3.42;;
56419;SDS011;42323;52.170;7.538;2022-08-03T07:02:36;6.75;;;3.63;;
56419;SDS011;42323;52.170;7.538;2022-08-03T07:05:04;5.20;;;3.58;;
56419;SDS011;42323;52.170;7.538;2022-08-03T07:07:32;4.55;;;3.03;;
56419;SDS011;42323;52.170;7.538;2022-08-03T07:09:59;8.18;;;3.97;;
56419;SDS011;42323;52.170;7.538;2022-08-03T07:12:28;4.97;;;2.97;;
56419;SDS011;42323;52.170;7.538;2022-08-03T07:14:56;6.57;;;3.10;;
56419;SDS011;42323;52.170;7.538;2022-08-03T07:17:27;6.60;;;2.90;;
56419;SDS011;42323;52.170;7.538;2022-08-03T07:19:55;8.73;;;2.65;;
56419;SDS011;42323;52.170;7.538;2022-08-03T07:22:22;6.60;;;3.08;;
56419;SDS011;42323;52.170;7.538;2022-08-03T07:24:49;6.45;;;2.60;;
56419;SDS011;42323;52.170;7.538;2022-08-03T07:27:16;6.30;;;2.25;;
56419;SDS011;42323;52.170;7.538;2022-08-03T07:29:43;7.82;;;2.60;;
56419;SDS011;42323;52.170;7.538;2022-08-03T07:32:09;6.55;;;2.30;;
56419;SDS011;42323;52.170;7.538;2022-08-03T07:34:36;4.40;;;2.22;;
56419;SDS011;42323;52.170;7.538;2022-08-03T07:37:04;5.18;;;1.85;;
56419;SDS011;42323;52.170;7.538;2022-08-03T07:39:30;5.45;;;2.28;;
56419;SDS011;42323;52.170;7.538;2022-08-03T07:41:57;4.43;;;1.90;;
56419;SDS011;42323;52.170;7.538;2022-08-03T07:44:24;5.55;;;2.08;;
56419;SDS011;42323;52.170;7.538;2022-08-03T07:46:51;4.55;;;2.25;;
56419;SDS011;42323;52.170;7.538;2022-08-03T07:49:18;3.22;;;1.58;;
56419;SDS011;42323;52.170;7.538;2022-08-03T07:51:45;4.85;;;2.00;;
56419;SDS011;42323;52.170;7.538;2022-08-03T07:54:32;3.00;;;1.90;;
56419;SDS011;42323;52.170;7.538;2022-08-03T07:56:59;3.65;;;1.80;;
56419;SDS011;42323;52.170;7.538;2022-08-03T07:59:26;3.92;;;1.67;;
56419;SDS011;42323;52.170;7.538;2022-08-03T08:01:52;4.53;;;1.52;;
56419;SDS011;42323;52.170;7.538;2022-08-03T08:04:19;6.72;;;1.80;;
56419;SDS011;42323;52.170;7.538;2022-08-03T08:06:46;2.72;;;1.70;;
56419;SDS011;42323;52.170;7.538;2022-08-03T08:09:15;3.58;;;1.50;;
56419;SDS011;42323;52.170;7.538;2022-08-03T08:11:42;3.40;;;1.80;;
56419;SDS011;42323;52.170;7.538;2022-08-03T08:14:09;5.63;;;1.70;;
56419;SDS011;42323;52.170;7.538;2022-08-03T08:16:36;2.78;;;1.30;;
56419;SDS011;42323;52.170;7.538;2022-08-03T08:19:02;4.68;;;1.75;;
56419;SDS011;42323;52.170;7.538;2022-08-03T08:21:29;3.13;;;1.25;;
56419;SDS011;42323;52.170;7.538;2022-08-03T08:24:16;3.03;;;1.52;;
56419;SDS011;42323;52.170;7.538;2022-08-03T08:26:47;3.53;;;1.40;;
56419;SDS011;42323;52.170;7.538;2022-08-03T08:29:14;4.13;;;1.80;;
56419;SDS011;42323;52.170;7.538;2022-08-03T08:31:41;7.47;;;1.73;;
56419;SDS011;42323;52.170;7.538;2022-08-03T08:34:08;4.65;;;1.60;;
56419;SDS011;42323;52.170;7.538;2022-08-03T08:36:34;4.10;;;1.52;;
56419;SDS011;42323;52.170;7.538;2022-08-03T08:39:01;3.42;;;1.30;;
56419;SDS011;42323;52.170;7.538;2022-08-03T08:41:28;2.38;;;1.33;;
56419;SDS011;42323;52.170;7.538;2022-08-03T08:44:02;3.03;;;1.50;;
56419;SDS011;42323;52.170;7.538;2022-08-03T08:46:31;4.10;;;1.60;;
56419;SDS011;42323;52.170;7.538;2022-08-03T08:48:58;3.45;;;1.70;;
56419;SDS011;42323;52.170;7.538;2022-08-03T08:51:30;6.35;;;1.70;;
56419;SDS011;42323;52.170;7.538;2022-08-03T08:54:22;6.43;;;1.55;;
56419;SDS011;42323;52.170;7.538;2022-08-03T08:56:51;5.72;;;1.75;;
56419;SDS011;42323;52.170;7.538;2022-08-03T08:59:21;4.63;;;1.50;;
56419;SDS011;42323;52.170;7.538;2022-08-03T09:01:49;2.92;;;1.40;;
56419;SDS011;42323;52.170;7.538;2022-08-03T09:04:16;5.75;;;1.83;;
56419;SDS011;42323;52.170;7.538;2022-08-03T09:06:44;4.93;;;1.83;;
56419;SDS011;42323;52.170;7.538;2022-08-03T09:09:31;6.03;;;1.70;;
56419;SDS011;42323;52.170;7.538;2022-08-03T09:12:18;5.50;;;1.58;;
56419;SDS011;42323;52.170;7.538;2022-08-03T09:15:18;7.07;;;1.48;;
56419;SDS011;42323;52.170;7.538;2022-08-03T09:17:48;3.05;;;1.50;;
56419;SDS011;42323;52.170;7.538;2022-08-03T09:20:17;3.55;;;1.73;;
56419;SDS011;42323;52.170;7.538;2022-08-03T09:25:25;3.63;;;1.42;;
56419;SDS011;42323;52.170;7.538;2022-08-03T09:27:54;3.27;;;1.53;;
56419;SDS011;42323;52.170;7.538;2022-08-03T09:30:34;3.75;;;1.73;;
56419;SDS011;42323;52.170;7.538;2022-08-03T09:33:04;3.17;;;1.98;;
56419;SDS011;42323;52.170;7.538;2022-08-03T09:35:43;3.05;;;1.73;;
56419;SDS011;42323;52.170;7.538;2022-08-03T09:38:21;3.22;;;1.42;;
56419;SDS011;42323;52.170;7.538;2022-08-03T09:40:53;3.15;;;1.50;;
56419;SDS011;42323;52.170;7.538;2022-08-03T09:43:26;5.75;;;1.90;;
56419;SDS011;42323;52.170;7.538;2022-08-03T09:46:03;10.23;;;2.00;;
56419;SDS011;42323;52.170;7.538;2022-08-03T09:48:31;2.97;;;1.23;;
56419;SDS011;42323;52.170;7.538;2022-08-03T09:51:02;3.17;;;1.80;;
56419;SDS011;42323;52.170;7.538;2022-08-03T09:53:50;5.40;;;1.75;;
56419;SDS011;42323;52.170;7.538;2022-08-03T09:56:46;2.78;;;1.42;;
56419;SDS011;42323;52.170;7.538;2022-08-03T09:59:15;4.45;;;1.60;;
56419;SDS011;42323;52.170;7.538;2022-08-03T10:01:51;4.47;;;1.52;;
56419;SDS011;42323;52.170;7.538;2022-08-03T10:04:22;7.07;;;1.45;;
56419;SDS011;42323;52.170;7.538;2022-08-03T10:07:06;3.15;;;1.40;;
56419;SDS011;42323;52.170;7.538;2022-08-03T10:09:35;2.78;;;1.45;;
56419;SDS011;42323;52.170;7.538;2022-08-03T10:12:10;4.38;;;1.42;;
56419;SDS011;42323;52.170;7.538;2022-08-03T10:14:39;3.53;;;1.80;;
56419;SDS011;42323;52.170;7.538;2022-08-03T10:17:08;8.90;;;1.70;;
56419;SDS011;42323;52.170;7.538;2022-08-03T10:19:35;3.33;;;1.60;;
56419;SDS011;42323;52.170;7.538;2022-08-03T10:22:35;5.88;;;1.55;;
56419;SDS011;42323;52.170;7.538;2022-08-03T10:25:03;4.30;;;1.52;;
56419;SDS011;42323;52.170;7.538;2022-08-03T10:27:37;5.03;;;1.70;;
56419;SDS011;42323;52.170;7.538;2022-08-03T10:30:06;4.28;;;1.70;;
56419;SDS011;42323;52.170;7.538;2022-08-03T10:35:09;4.10;;;1.80;;
56419;SDS011;42323;52.170;7.538;2022-08-03T10:40:54;6.28;;;1.50;;
56419;SDS011;42323;52.170;7.538;2022-08-03T10:43:28;3.58;;;1.40;;
56419;SDS011;42323;52.170;7.538;2022-08-03T10:46:02;4.78;;;1.75;;
56419;SDS011;42323;52.170;7.538;2022-08-03T10:48:32;3.40;;;1.50;;
56419;SDS011;42323;52.170;7.538;2022-08-03T10:51:01;5.35;;;1.50;;
56419;SDS011;42323;52.170;7.538;2022-08-03T10:53:37;3.63;;;1.50;;
56419;SDS011;42323;52.170;7.538;2022-08-03T11:02:13;3.15;;;1.33;;
56419;SDS011;42323;52.170;7.538;2022-08-03T11:04:40;4.47;;;1.17;;
56419;SDS011;42323;52.170;7.538;2022-08-03T11:09:50;3.15;;;1.17;;
56419;SDS011;42323;52.170;7.538;2022-08-03T11:12:28;4.93;;;1.20;;
56419;SDS011;42323;52.170;7.538;2022-08-03T11:14:59;4.97;;;1.40;;
56419;SDS011;42323;52.170;7.538;2022-08-03T11:17:27;5.88;;;1.10;;
56419;SDS011;42323;52.170;7.538;2022-08-03T11:19:54;4.50;;;1.20;;
56419;SDS011;42323;52.170;7.538;2022-08-03T11:22:23;4.50;;;1.25;;
56419;SDS011;42323;52.170;7.538;2022-08-03T11:27:23;5.00;;;1.25;;
56419;SDS011;42323;52.170;7.538;2022-08-03T11:30:10;3.40;;;1.20;;
56419;SDS011;42323;52.170;7.538;2022-08-03T11:35:21;3.13;;;1.30;;
56419;SDS011;42323;52.170;7.538;2022-08-03T11:38:05;5.85;;;1.35;;
56419;SDS011;42323;52.170;7.538;2022-08-03T11:40:42;6.47;;;1.80;;
56419;SDS011;42323;52.170;7.538;2022-08-03T11:46:03;5.45;;;1.40;;
56419;SDS011;42323;52.170;7.538;2022-08-03T11:48:33;5.43;;;1.25;;
56419;SDS011;42323;52.170;7.538;2022-08-03T11:51:00;3.90;;;1.20;;
56419;SDS011;42323;52.170;7.538;2022-08-03T11:53:28;8.30;;;1.38;;
56419;SDS011;42323;52.170;7.538;2022-08-03T11:56:00;5.93;;;1.40;;
56419;SDS011;42323;52.170;7.538;2022-08-03T11:58:29;4.13;;;1.20;;
56419;SDS011;42323;52.170;7.538;2022-08-03T12:01:16;10.23;;;1.63;;
56419;SDS011;42323;52.170;7.538;2022-08-03T12:03:48;5.35;;;1.20;;
56419;SDS011;42323;52.170;7.538;2022-08-03T12:06:15;7.50;;;1.20;;
56419;SDS011;42323;52.170;7.538;2022-08-03T12:08:44;7.78;;;1.65;;
56419;SDS011;42323;52.170;7.538;2022-08-03T12:11:12;6.70;;;1.75;;
56419;SDS011;42323;52.170;7.538;2022-08-03T12:13:44;8.88;;;1.65;;
56419;SDS011;42323;52.170;7.538;2022-08-03T12:16:36;9.13;;;1.75;;
56419;SDS011;42323;52.170;7.538;2022-08-03T12:19:04;6.82;;;1.42;;
56419;SDS011;42323;52.170;7.538;2022-08-03T12:21:32;7.50;;;1.50;;
56419;SDS011;42323;52.170;7.538;2022-08-03T12:24:00;8.93;;;1.80;;
56419;SDS011;42323;52.170;7.538;2022-08-03T12:26:41;8.55;;;1.75;;
56419;SDS011;42323;52.170;7.538;2022-08-03T12:29:24;6.72;;;1.55;;
56419;SDS011;42323;52.170;7.538;2022-08-03T12:31:52;6.63;;;1.60;;
56419;SDS011;42323;52.170;7.538;2022-08-03T12:34:19;8.32;;;1.60;;
56419;SDS011;42323;52.170;7.538;2022-08-03T12:36:50;7.50;;;1.70;;
56419;SDS011;42323;52.170;7.538;2022-08-03T12:39:22;8.70;;;1.60;;
56419;SDS011;42323;52.170;7.538;2022-08-03T12:41:53;4.40;;;1.40;;
56419;SDS011;42323;52.170;7.538;2022-08-03T12:44:34;8.95;;;1.65;;
56419;SDS011;42323;52.170;7.538;2022-08-03T12:47:02;8.82;;;1.92;;
56419;SDS011;42323;52.170;7.538;2022-08-03T12:49:43;4.70;;;1.30;;
56419;SDS011;42323;52.170;7.538;2022-08-03T12:52:15;6.00;;;1.75;;
56419;SDS011;42323;52.170;7.538;2022-08-03T12:54:53;5.10;;;1.40;;
56419;SDS011;42323;52.170;7.538;2022-08-03T12:57:25;6.22;;;1.30;;
56419;SDS011;42323;52.170;7.538;2022-08-03T13:00:12;7.53;;;1.83;;
56419;SDS011;42323;52.170;7.538;2022-08-03T13:03:02;5.55;;;1.73;;
56419;SDS011;42323;52.170;7.538;2022-08-03T13:05:51;8.80;;;1.70;;
56419;SDS011;42323;52.170;7.538;2022-08-03T13:08:21;6.65;;;1.70;;
56419;SDS011;42323;52.170;7.538;2022-08-03T13:10:50;5.03;;;1.38;;
56419;SDS011;42323;52.170;7.538;2022-08-03T13:13:17;7.32;;;1.92;;
56419;SDS011;42323;52.170;7.538;2022-08-03T13:15:47;5.50;;;1.35;;
56419;SDS011;42323;52.170;7.538;2022-08-03T13:18:14;5.75;;;1.30;;
56419;SDS011;42323;52.170;7.538;2022-08-03T13:20:42;8.70;;;1.65;;
56419;SDS011;42323;52.170;7.538;2022-08-03T13:23:09;6.00;;;1.42;;
56419;SDS011;42323;52.170;7.538;2022-08-03T13:25:47;5.18;;;1.42;;
56419;SDS011;42323;52.170;7.538;2022-08-03T13:28:21;5.35;;;1.20;;
56419;SDS011;42323;52.170;7.538;2022-08-03T13:30:49;8.90;;;1.73;;
56419;SDS011;42323;52.170;7.538;2022-08-03T13:33:16;6.18;;;1.40;;
56419;SDS011;42323;52.170;7.538;2022-08-03T13:35:43;7.60;;;1.80;;
56419;SDS011;42323;52.170;7.538;2022-08-03T13:38:10;8.75;;;1.77;;
56419;SDS011;42323;52.170;7.538;2022-08-03T13:40:40;8.35;;;1.80;;
56419;SDS011;42323;52.170;7.538;2022-08-03T13:43:07;8.27;;;1.80;;
56419;SDS011;42323;52.170;7.538;2022-08-03T13:45:34;8.18;;;1.45;;
56419;SDS011;42323;52.170;7.538;2022-08-03T13:48:01;5.70;;;1.42;;
56419;SDS011;42323;52.170;7.538;2022-08-03T13:50:28;5.75;;;1.40;;
56419;SDS011;42323;52.170;7.538;2022-08-03T13:52:56;7.18;;;1.60;;
56419;SDS011;42323;52.170;7.538;2022-08-03T13:55:23;5.55;;;1.50;;
56419;SDS011;42323;52.170;7.538;2022-08-03T13:57:50;8.90;;;1.55;;
56419;SDS011;42323;52.170;7.538;2022-08-03T14:00:32;5.13;;;1.50;;
56419;SDS011;42323;52.170;7.538;2022-08-03T14:03:00;4.90;;;1.50;;
56419;SDS011;42323;52.170;7.538;2022-08-03T14:05:39;6.82;;;1.48;;
56419;SDS011;42323;52.170;7.538;2022-08-03T14:08:07;7.07;;;1.33;;
56419;SDS011;42323;52.170;7.538;2022-08-03T14:10:39;3.67;;;1.27;;
56419;SDS011;42323;52.170;7.538;2022-08-03T14:13:09;6.72;;;1.75;;
56419;SDS011;42323;52.170;7.538;2022-08-03T14:15:42;4.50;;;1.20;;
56419;SDS011;42323;52.170;7.538;2022-08-03T14:18:16;5.32;;;1.10;;
56419;SDS011;42323;52.170;7.538;2022-08-03T14:21:03;10.98;;;1.52;;
56419;SDS011;42323;52.170;7.538;2022-08-03T14:23:33;7.25;;;1.10;;
56419;SDS011;42323;52.170;7.538;2022-08-03T14:26:01;4.47;;;1.30;;
56419;SDS011;42323;52.170;7.538;2022-08-03T14:28:28;4.95;;;1.25;;
56419;SDS011;42323;52.170;7.538;2022-08-03T14:30:55;5.85;;;1.58;;
56419;SDS011;42323;52.170;7.538;2022-08-03T14:33:22;4.95;;;1.00;;
56419;SDS011;42323;52.170;7.538;2022-08-03T14:35:50;6.05;;;1.17;;
56419;SDS011;42323;52.170;7.538;2022-08-03T14:38:17;5.38;;;1.23;;
56419;SDS011;42323;52.170;7.538;2022-08-03T14:40:44;4.32;;;1.13;;
56419;SDS011;42323;52.170;7.538;2022-08-03T14:43:12;2.95;;;1.00;;
56419;SDS011;42323;52.170;7.538;2022-08-03T14:45:41;3.25;;;1.13;;
56419;SDS011;42323;52.170;7.538;2022-08-03T14:48:08;5.40;;;1.25;;
56419;SDS011;42323;52.170;7.538;2022-08-03T14:50:57;3.55;;;1.00;;
56419;SDS011;42323;52.170;7.538;2022-08-03T14:53:24;7.45;;;1.10;;
56419;SDS011;42323;52.170;7.538;2022-08-03T14:55:51;5.90;;;1.08;;
56419;SDS011;42323;52.170;7.538;2022-08-03T14:58:19;5.25;;;1.10;;
56419;SDS011;42323;52.170;7.538;2022-08-03T15:00:51;5.47;;;1.33;;
56419;SDS011;42323;52.170;7.538;2022-08-03T15:03:19;3.42;;;0.95;;
56419;SDS011;42323;52.170;7.538;2022-08-03T15:05:53;6.03;;;1.15;;
56419;SDS011;42323;52.170;7.538;2022-08-03T15:08:21;6.75;;;1.20;;
56419;SDS011;42323;52.170;7.538;2022-08-03T15:10:49;4.63;;;1.40;;
56419;SDS011;42323;52.170;7.538;2022-08-03T15:13:17;5.38;;;1.10;;
56419;SDS011;42323;52.170;7.538;2022-08-03T15:15:45;6.40;;;1.30;;
56419;SDS011;42323;52.170;7.538;2022-08-03T15:18:12;4.40;;;0.98;;
56419;SDS011;42323;52.170;7.538;2022-08-03T15:20:39;5.72;;;1.20;;
56419;SDS011;42323;52.170;7.538;2022-08-03T15:23:13;4.88;;;1.20;;
56419;SDS011;42323;52.170;7.538;2022-08-03T15:25:43;3.60;;;1.05;;
56419;SDS011;42323;52.170;7.538;2022-08-03T15:28:31;8.80;;;1.48;;
56419;SDS011;42323;52.170;7.538;2022-08-03T15:30:59;8.43;;;1.35;;
56419;SDS011;42323;52.170;7.538;2022-08-03T15:33:26;7.32;;;1.30;;
56419;SDS011;42323;52.170;7.538;2022-08-03T15:35:53;3.97;;;0.98;;
56419;SDS011;42323;52.170;7.538;2022-08-03T15:38:22;3.97;;;1.17;;
56419;SDS011;42323;52.170;7.538;2022-08-03T15:40:52;5.25;;;1.10;;
56419;SDS011;42323;52.170;7.538;2022-08-03T15:43:22;3.78;;;1.05;;
56419;SDS011;42323;52.170;7.538;2022-08-03T15:45:49;8.93;;;1.33;;
56419;SDS011;42323;52.170;7.538;2022-08-03T15:48:37;7.97;;;1.13;;
56419;SDS011;42323;52.170;7.538;2022-08-03T15:51:04;7.18;;;1.33;;
56419;SDS011;42323;52.170;7.538;2022-08-03T15:53:32;6.45;;;1.15;;
56419;SDS011;42323;52.170;7.538;2022-08-03T15:55:59;5.80;;;1.08;;
56419;SDS011;42323;52.170;7.538;2022-08-03T15:58:33;3.50;;;0.80;;